Time;durP1;ratioP1;P1;durP2;ratioP2;P2;SDS_P1;SDS_P2;PMS_P1;PMS_P2;Temp;Humidity;BMP_temperature;BMP_pressure;BME280_temperature;BME280_humidity;BME280_pressure;Samples;Min_cycle;Max_cycle;Signal;HPM_P1;HPM_P2
2022/03/24 00:01:20;;;;;;;41.45;22.00;;;;;;;5.47;59.22;102883.59;4994144;28;20049;-91
2022/03/24 00:03:46;;;;;;;40.08;21.08;;;;;;;5.41;60.27;102878.25;4992558;28;20041;-90
2022/03/24 00:06:12;;;;;;;43.65;21.42;;;;;;;5.38;58.99;102890.19;4993476;28;20183;-91
2022/03/24 00:08:37;;;;;;;43.47;22.42;;;;;;;5.34;60.15;102890.94;4991984;28;20036;-91
2022/03/24 00:11:03;;;;;;;42.47;22.52;;;;;;;5.32;60.52;102884.00;5010495;28;20022;-89
2022/03/24 00:13:29;;;;;;;42.80;22.38;;;;;;;5.32;60.65;102878.84;4994968;28;20029;-90
2022/03/24 00:15:55;;;;;;;39.22;22.60;;;;;;;5.30;61.05;102880.50;4993409;28;20030;-90
2022/03/24 00:18:20;;;;;;;41.17;21.55;;;;;;;5.29;61.03;102881.38;5009361;28;20133;-91
2022/03/24 00:20:45;;;;;;;37.83;20.92;;;;;;;5.26;61.12;102877.81;5009792;28;20453;-90
2022/03/24 00:23:10;;;;;;;39.97;22.73;;;;;;;5.24;60.90;102882.03;4992911;28;20037;-90
2022/03/24 00:25:37;;;;;;;40.35;22.20;;;;;;;5.21;61.40;102871.66;5009484;28;20505;-90
2022/03/24 00:28:03;;;;;;;41.47;21.33;;;;;;;5.18;61.59;102868.97;5010626;28;20032;-91
2022/03/24 00:30:29;;;;;;;38.63;21.75;;;;;;;5.16;61.15;102869.81;5012165;28;20010;-90
2022/03/24 00:32:54;;;;;;;47.85;23.38;;;;;;;5.13;61.30;102866.22;5008873;28;20036;-89
2022/03/24 00:35:21;;;;;;;45.83;23.30;;;;;;;5.12;60.84;102875.69;5007386;28;20393;-91
2022/03/24 00:37:46;;;;;;;40.63;22.23;;;;;;;5.08;62.01;102865.25;5009991;28;20034;-90
2022/03/24 00:40:16;;;;;;;41.88;22.88;;;;;;;5.09;61.89;102869.56;5010008;28;20043;-90
2022/03/24 00:42:42;;;;;;;40.80;22.33;;;;;;;5.05;61.71;102865.16;5007680;28;20033;-91
2022/03/24 00:45:12;;;;;;;46.55;23.35;;;;;;;5.03;62.01;102865.13;5008989;28;20037;-91
2022/03/24 00:47:39;;;;;;;50.30;23.90;;;;;;;4.99;61.49;102864.13;4990394;28;20022;-91
2022/03/24 00:50:05;;;;;;;42.10;22.30;;;;;;;4.99;60.98;102866.69;4991220;28;20528;-90
2022/03/24 00:52:30;;;;;;;44.40;23.73;;;;;;;5.01;61.16;102862.47;4988503;28;20044;-90
2022/03/24 00:54:55;;;;;;;46.75;22.42;;;;;;;4.98;60.90;102857.22;5008883;28;20022;-91
2022/03/24 00:57:21;;;;;;;47.50;24.35;;;;;;;4.97;60.96;102859.75;5010225;28;20541;-89
2022/03/24 00:59:46;;;;;;;42.85;23.27;;;;;;;4.93;61.49;102858.81;5010509;28;20026;-89
2022/03/24 01:02:12;;;;;;;46.30;23.20;;;;;;;4.87;62.32;102861.19;5010329;28;20050;-90
2022/03/24 01:04:38;;;;;;;43.22;23.52;;;;;;;4.85;62.59;102855.09;4991063;28;20026;-90
2022/03/24 01:07:04;;;;;;;41.67;21.17;;;;;;;4.85;62.82;102858.56;5010187;28;20397;-90
2022/03/24 01:09:30;;;;;;;40.95;20.88;;;;;;;4.83;60.83;102854.16;4988862;28;20030;-91
2022/03/24 01:11:56;;;;;;;43.25;22.38;;;;;;;4.78;61.25;102853.19;4992769;28;20030;-89
2022/03/24 01:14:22;;;;;;;43.70;22.92;;;;;;;4.73;62.17;102852.16;5008685;28;20031;-91
2022/03/24 01:16:50;;;;;;;44.25;23.02;;;;;;;4.69;61.98;102859.78;4993692;28;20509;-89
2022/03/24 01:19:15;;;;;;;43.92;22.13;;;;;;;4.67;62.39;102850.25;4993399;28;20021;-90
2022/03/24 01:21:41;;;;;;;43.20;23.42;;;;;;;4.64;62.33;102853.59;4994323;28;20025;-91
2022/03/24 01:24:08;;;;;;;40.53;23.05;;;;;;;4.56;62.52;102848.19;4995074;28;20025;-91
2022/03/24 01:26:33;;;;;;;39.73;22.20;;;;;;;4.54;63.16;102852.44;4992496;28;20060;-90
2022/03/24 01:28:59;;;;;;;40.55;21.05;;;;;;;4.52;62.58;102850.63;5008323;28;20038;-91
2022/03/24 01:31:25;;;;;;;43.72;22.75;;;;;;;4.50;63.15;102852.28;4991020;28;20676;-90
2022/03/24 01:33:50;;;;;;;39.20;21.70;;;;;;;4.50;63.08;102848.03;5010379;28;20026;-90
2022/03/24 01:36:16;;;;;;;44.50;22.40;;;;;;;4.47;63.15;102844.44;4992879;28;20576;-89
2022/03/24 01:38:41;;;;;;;45.83;21.52;;;;;;;4.43;63.36;102846.06;4990684;28;20128;-90
2022/03/24 01:41:07;;;;;;;40.83;22.65;;;;;;;4.42;63.48;102841.72;5009819;28;20033;-90
2022/03/24 01:43:33;;;;;;;42.80;22.85;;;;;;;4.38;64.25;102838.19;5006992;28;20049;-89
2022/03/24 01:45:59;;;;;;;40.08;21.52;;;;;;;4.35;63.86;102837.22;4992845;28;20103;-90
2022/03/24 01:48:25;;;;;;;42.33;22.95;;;;;;;4.32;64.36;102827.66;5009940;28;20072;-91
2022/03/24 01:50:50;;;;;;;45.80;22.15;;;;;;;4.35;64.00;102832.06;4993444;28;20049;-91
2022/03/24 01:53:17;;;;;;;40.88;22.88;;;;;;;4.35;63.67;102832.94;5000129;28;20026;-90
2022/03/24 01:55:44;;;;;;;48.25;23.70;;;;;;;4.34;63.60;102826.03;5024796;28;20022;-90
2022/03/24 01:58:11;;;;;;;47.90;23.60;;;;;;;4.29;64.37;102817.25;4994635;28;20396;-92
2022/03/24 02:00:37;;;;;;;46.50;25.33;;;;;;;4.32;63.78;102816.50;5018662;28;20100;-90
2022/03/24 02:03:05;;;;;;;49.00;24.65;;;;;;;4.29;62.97;102822.41;4996951;28;20485;-90
2022/03/24 02:05:34;;;;;;;47.87;24.20;;;;;;;4.25;63.36;102830.91;4996620;28;20014;-90
2022/03/24 02:08:03;;;;;;;51.85;25.02;;;;;;;4.16;63.95;102825.41;5035512;28;20056;-91
2022/03/24 02:10:33;;;;;;;45.53;23.77;;;;;;;4.10;62.93;102816.66;5017138;28;20026;-90
2022/03/24 02:12:59;;;;;;;45.92;24.55;;;;;;;4.03;63.54;102819.88;5012217;28;20033;-90
2022/03/24 02:15:25;;;;;;;44.20;24.17;;;;;;;3.99;63.70;102824.88;5011995;28;20412;-89
2022/03/24 02:17:52;;;;;;;48.57;24.10;;;;;;;3.92;64.09;102819.50;5008973;28;20026;-89
2022/03/24 02:20:19;;;;;;;45.10;24.42;;;;;;;3.94;64.92;102819.53;4991292;28;20389;-90
2022/03/24 02:22:45;;;;;;;45.73;24.03;;;;;;;3.90;63.44;102810.00;4989957;28;20469;-90
2022/03/24 02:25:11;;;;;;;52.40;25.20;;;;;;;3.88;63.36;102814.22;5007636;28;20021;-90
2022/03/24 02:27:38;;;;;;;50.30;25.63;;;;;;;3.86;63.75;102821.00;4989972;28;20091;-89
2022/03/24 02:30:05;;;;;;;42.97;23.27;;;;;;;3.77;62.16;102821.56;5010027;28;20473;-90
2022/03/24 02:32:30;;;;;;;41.20;21.80;;;;;;;3.70;63.09;102825.63;5009296;28;20030;-90
2022/03/24 02:34:55;;;;;;;40.20;22.23;;;;;;;3.70;63.85;102817.91;5013528;28;20025;-90
2022/03/24 02:37:23;;;;;;;45.37;22.53;;;;;;;3.67;63.66;102814.34;4990865;28;20048;-89
2022/03/24 02:39:51;;;;;;;43.70;21.90;;;;;;;3.58;64.40;102810.63;5007171;28;20105;-90
2022/03/24 02:42:19;;;;;;;50.93;25.37;;;;;;;3.53;64.71;102819.00;4989215;28;20416;-91
2022/03/24 02:44:47;;;;;;;42.27;23.00;;;;;;;3.49;64.64;102815.47;5003662;28;20117;-89
2022/03/24 02:47:13;;;;;;;46.07;23.97;;;;;;;3.47;64.33;102812.81;5005602;28;20049;-89
2022/03/24 02:49:40;;;;;;;44.60;23.27;;;;;;;3.44;63.96;102815.25;5006201;28;20052;-90
2022/03/24 02:52:06;;;;;;;47.23;24.17;;;;;;;3.41;64.74;102814.28;5009213;28;20493;-90
2022/03/24 02:54:32;;;;;;;47.80;24.73;;;;;;;3.44;65.85;102816.97;5006562;28;20092;-89
2022/03/24 02:56:58;;;;;;;46.23;24.17;;;;;;;3.46;65.32;102816.19;5006167;28;20026;-90
2022/03/24 02:59:24;;;;;;;48.27;25.20;;;;;;;3.47;65.15;102817.94;5007727;28;20180;-89
2022/03/24 03:02:00;;;;;;;56.60;27.40;;;;;;;3.49;64.30;102825.75;5006309;28;20053;-88
2022/03/24 03:04:32;;;;;;;51.60;26.23;;;;;;;3.42;64.77;102819.47;5007664;28;20475;-90
2022/03/24 03:06:58;;;;;;;;;;;;;;;3.45;61.97;102814.44;4989055;28;20037;-90
2022/03/24 03:09:23;;;;;;;49.57;23.07;;;;;;;3.38;64.69;102822.78;5010456;28;19921;-89
2022/03/24 03:11:49;;;;;;;52.00;24.27;;;;;;;3.33;65.42;102824.31;5011124;28;20026;-90
2022/03/24 03:14:16;;;;;;;47.67;22.87;;;;;;;3.32;64.29;102832.84;5008607;28;20080;-91
2022/03/24 03:16:44;;;;;;;44.13;23.43;;;;;;;3.26;65.41;102815.50;5007731;28;20764;-90
2022/03/24 03:19:10;;;;;;;49.57;23.97;;;;;;;3.26;65.12;102819.75;5012167;28;20034;-90
2022/03/24 03:21:36;;;;;;;46.53;24.17;;;;;;;3.22;64.81;102820.47;4993505;28;20046;-89
2022/03/24 03:24:03;;;;;;;44.73;23.00;;;;;;;3.15;64.86;102825.38;5009888;28;20022;-89
2022/03/24 03:26:28;;;;;;;48.00;24.87;;;;;;;3.16;66.27;102815.97;4992187;28;20030;-89
2022/03/24 03:28:54;;;;;;;49.00;24.67;;;;;;;3.18;65.09;102819.47;4996262;28;20025;-90
2022/03/24 03:31:20;;;;;;;47.87;24.80;;;;;;;3.13;66.00;102827.00;4993833;28;20500;-90
2022/03/24 03:33:46;;;;;;;44.33;24.10;;;;;;;3.10;65.83;102820.88;5009475;28;20393;-90
2022/03/24 03:36:11;;;;;;;47.37;23.77;;;;;;;3.07;65.70;102825.91;5010120;28;20025;-90
2022/03/24 03:38:37;;;;;;;50.20;24.30;;;;;;;3.06;65.58;102819.91;5013199;28;20036;-89
2022/03/24 03:41:02;;;;;;;45.27;23.77;;;;;;;3.03;66.11;102824.94;5014295;28;20033;-90
2022/03/24 03:43:29;;;;;;;48.70;23.97;;;;;;;2.98;66.00;102822.19;5014338;28;20029;-89
2022/03/24 03:45:55;;;;;;;48.73;23.73;;;;;;;2.97;66.06;102833.28;5016164;28;20105;-89
2022/03/24 03:48:21;;;;;;;45.70;23.40;;;;;;;2.95;66.19;102823.75;5014560;28;20022;-89
2022/03/24 03:50:46;;;;;;;53.33;24.47;;;;;;;2.91;66.11;102825.34;5025114;28;20030;-90
2022/03/24 03:53:11;;;;;;;47.80;23.90;;;;;;;2.90;66.23;102825.28;5011640;28;20025;-90
2022/03/24 03:55:38;;;;;;;46.33;23.63;;;;;;;2.88;66.33;102820.97;4993753;28;20025;-89
2022/03/24 03:58:05;;;;;;;46.80;23.27;;;;;;;2.84;65.49;102826.78;5005483;28;20026;-90
2022/03/24 04:03:15;;;;;;;51.63;25.37;;;;;;;2.81;66.11;102823.25;5011261;28;20095;-89
2022/03/24 04:05:41;;;;;;;48.90;23.93;;;;;;;2.80;66.58;102827.50;5014444;28;20041;-90
2022/03/24 04:08:09;;;;;;;45.07;23.70;;;;;;;2.78;66.06;102831.69;5012844;28;20033;-89
2022/03/24 04:10:34;;;;;;;47.30;25.10;;;;;;;2.77;66.17;102821.38;5009504;28;20033;-89
2022/03/24 04:13:00;;;;;;;49.97;25.40;;;;;;;2.77;66.91;102837.66;4991834;28;20033;-90
2022/03/24 04:15:26;;;;;;;46.87;25.27;;;;;;;2.74;66.50;102832.38;5009291;28;20449;-90
2022/03/24 04:17:51;;;;;;;45.03;23.73;;;;;;;2.70;66.18;102830.53;5009672;28;20026;-91
2022/03/24 04:20:20;;;;;;;49.40;25.07;;;;;;;2.67;66.91;102835.53;5010501;28;20392;-88
2022/03/24 04:22:58;;;;;;;47.07;23.90;;;;;;;2.65;66.80;102824.31;5008554;28;20021;-90
2022/03/24 04:25:23;;;;;;;44.67;23.97;;;;;;;2.62;66.34;102831.91;5009845;28;20022;-90
2022/03/24 04:27:49;;;;;;;47.03;24.87;;;;;;;2.59;66.57;102835.25;4992714;28;20125;-90
2022/03/24 04:30:17;;;;;;;47.27;23.90;;;;;;;2.55;66.39;102826.53;5015983;28;20025;-89
2022/03/24 04:32:43;;;;;;;44.00;24.13;;;;;;;2.53;66.82;102828.19;4991702;28;20053;-89
2022/03/24 04:35:09;;;;;;;44.73;23.13;;;;;;;2.52;66.60;102828.97;4990358;28;20354;-89
2022/03/24 04:37:36;;;;;;;47.03;23.03;;;;;;;2.51;66.94;102827.22;5010950;28;20037;-89
2022/03/24 04:40:03;;;;;;;45.70;23.73;;;;;;;2.50;66.61;102828.03;5009396;28;20044;-89
2022/03/24 04:42:29;;;;;;;46.03;24.27;;;;;;;2.49;66.79;102830.53;5008560;28;20129;-90
2022/03/24 04:44:55;;;;;;;50.40;25.67;;;;;;;2.47;66.76;102827.91;5010416;28;20033;-89
2022/03/24 04:47:21;;;;;;;44.87;23.13;;;;;;;2.45;66.60;102828.69;5009509;28;20039;-89
2022/03/24 04:49:46;;;;;;;47.60;23.70;;;;;;;2.42;67.10;102835.44;4991712;28;20232;-89
2022/03/24 04:52:12;;;;;;;51.87;24.30;;;;;;;2.42;66.39;102834.56;4990038;28;20038;-90
2022/03/24 04:54:37;;;;;;;47.50;24.37;;;;;;;2.42;65.98;102839.69;4991254;28;20025;-90
2022/03/24 04:57:03;;;;;;;52.27;25.83;;;;;;;2.41;66.01;102840.50;5009948;28;20033;-90
2022/03/24 04:59:28;;;;;;;54.83;27.53;;;;;;;2.36;65.95;102830.06;5008620;28;20060;-90
2022/03/24 05:01:54;;;;;;;50.63;25.50;;;;;;;2.32;66.23;102838.44;4986291;28;20054;-89
2022/03/24 05:04:21;;;;;;;49.83;26.27;;;;;;;2.23;66.87;102832.94;4992191;28;20465;-89
2022/03/24 05:06:46;;;;;;;50.83;25.10;;;;;;;2.21;66.76;102837.13;4989563;28;20030;-89
2022/03/24 05:09:12;;;;;;;49.40;24.93;;;;;;;2.18;67.26;102837.88;4989456;28;20032;-90
2022/03/24 05:11:38;;;;;;;50.47;24.67;;;;;;;2.21;66.68;102839.69;5009714;28;20494;-89
2022/03/24 05:14:03;;;;;;;49.93;25.23;;;;;;;2.19;66.40;102837.09;5008736;28;20079;-89
2022/03/24 05:16:28;;;;;;;47.83;23.83;;;;;;;2.13;67.48;102840.25;4991129;28;20026;-89
2022/03/24 05:18:54;;;;;;;49.00;23.60;;;;;;;2.12;67.02;102835.06;5012018;28;20041;-89
2022/03/24 05:21:19;;;;;;;47.60;24.13;;;;;;;2.12;66.88;102840.19;4995003;28;20032;-90
2022/03/24 05:23:45;;;;;;;46.07;22.73;;;;;;;2.12;67.27;102843.66;5017826;28;20042;-89
2022/03/24 05:26:10;;;;;;;46.73;24.67;;;;;;;2.11;67.27;102834.19;5013002;28;20034;-89
2022/03/24 05:28:36;;;;;;;46.63;23.27;;;;;;;2.12;67.55;102841.09;5012068;28;20033;-89
2022/03/24 05:31:01;;;;;;;46.53;24.83;;;;;;;2.12;67.27;102841.09;4991145;28;20040;-89
2022/03/24 05:33:27;;;;;;;47.03;24.50;;;;;;;2.10;67.24;102839.25;5013305;28;20025;-89
2022/03/24 05:35:52;;;;;;;48.63;24.57;;;;;;;2.06;67.59;102845.06;5014372;28;20033;-89
2022/03/24 05:38:17;;;;;;;60.73;25.00;;;;;;;2.10;67.46;102841.81;5007278;28;20422;-90
2022/03/24 05:40:43;;;;;;;97.50;26.60;;;;;;;2.08;67.04;102849.47;5008327;28;20146;-89
2022/03/24 05:43:08;;;;;;;129.50;30.90;;;;;;;2.07;67.41;102844.25;5009204;28;20047;-89
2022/03/24 05:45:34;;;;;;;82.90;26.33;;;;;;;2.03;68.04;102842.38;5011835;28;20477;-89
2022/03/24 05:47:59;;;;;;;90.27;27.13;;;;;;;2.03;68.12;102843.25;4991123;28;20044;-90
2022/03/24 05:50:25;;;;;;;80.27;27.23;;;;;;;2.03;67.91;102842.38;4993784;28;20021;-88
2022/03/24 05:52:51;;;;;;;88.20;28.07;;;;;;;2.00;68.46;102843.13;4996222;28;20056;-89
2022/03/24 05:55:19;;;;;;;82.27;28.57;;;;;;;2.01;68.35;102852.56;5008138;28;20041;-89
2022/03/24 05:57:45;;;;;;;87.53;27.23;;;;;;;2.04;68.56;102851.84;4992829;28;20026;-89
2022/03/24 06:00:11;;;;;;;82.43;26.07;;;;;;;2.06;68.30;102850.19;5010233;28;20090;-89
2022/03/24 06:02:37;;;;;;;78.67;26.40;;;;;;;2.05;68.52;102849.34;4988052;28;20096;-89
2022/03/24 06:05:09;;;;;;;65.17;25.00;;;;;;;2.07;68.43;102849.38;5009807;28;20041;-89
2022/03/24 06:07:34;;;;;;;64.10;26.33;;;;;;;2.10;68.58;102847.84;5010500;28;20033;-89
2022/03/24 06:09:59;;;;;;;64.00;25.27;;;;;;;2.15;68.47;102853.16;5009056;28;20033;-88
2022/03/24 06:12:25;;;;;;;69.97;24.37;;;;;;;2.20;68.36;102853.34;4990007;28;20046;-90
2022/03/24 06:14:51;;;;;;;65.70;24.83;;;;;;;2.21;69.15;102850.88;5009955;28;20037;-89
2022/03/24 06:17:18;;;;;;;64.97;24.53;;;;;;;2.25;69.44;102857.84;5025793;28;20038;-89
2022/03/24 06:19:45;;;;;;;59.27;23.53;;;;;;;2.28;69.17;102852.84;5029727;28;20037;-90
2022/03/24 06:22:10;;;;;;;55.57;24.13;;;;;;;2.31;69.06;102861.50;5020201;28;20169;-89
2022/03/24 06:24:35;;;;;;;54.63;26.03;;;;;;;2.36;68.75;102860.00;5001318;28;20158;-89
2022/03/24 06:27:01;;;;;;;53.30;25.13;;;;;;;2.40;68.71;102862.75;5017804;28;20021;-89
2022/03/24 06:29:26;;;;;;;58.57;26.77;;;;;;;2.48;69.17;102857.03;4997069;28;20026;-90
2022/03/24 06:31:51;;;;;;;51.63;26.43;;;;;;;2.54;69.39;102855.63;4993518;28;20060;-89
2022/03/24 06:34:17;;;;;;;58.03;26.57;;;;;;;2.64;69.00;102858.53;5011511;28;20082;-89
2022/03/24 06:36:43;;;;;;;54.10;27.47;;;;;;;2.69;69.59;102860.47;5010419;28;20057;-89
2022/03/24 06:39:09;;;;;;;50.13;26.03;;;;;;;2.76;70.46;102861.59;5011418;28;20109;-89
2022/03/24 06:41:34;;;;;;;57.43;26.70;;;;;;;2.83;69.94;102867.84;5013886;28;20026;-89
2022/03/24 06:44:00;;;;;;;57.13;26.30;;;;;;;2.93;70.44;102864.84;4995304;28;20033;-90
2022/03/24 06:46:29;;;;;;;59.10;27.97;;;;;;;3.03;70.40;102873.78;4992684;28;20025;-89
2022/03/24 06:48:55;;;;;;;60.37;29.27;;;;;;;3.11;70.93;102862.06;4993534;28;20033;-89
2022/03/24 06:51:20;;;;;;;59.80;29.10;;;;;;;3.19;71.33;102863.25;5010858;28;20117;-91
2022/03/24 06:53:46;;;;;;;51.93;27.97;;;;;;;3.25;71.41;102861.72;4992400;28;20377;-90
2022/03/24 06:56:11;;;;;;;54.50;27.63;;;;;;;3.31;71.76;102865.41;5010814;28;20053;-89
2022/03/24 06:58:37;;;;;;;52.63;27.93;;;;;;;3.39;71.92;102868.28;4992704;28;20485;-89
2022/03/24 07:01:04;;;;;;;50.73;27.03;;;;;;;3.47;71.76;102861.69;5010078;28;20026;-89
2022/03/24 07:03:29;;;;;;;54.63;27.37;;;;;;;3.57;71.69;102862.91;5013994;28;20041;-89
2022/03/24 07:05:55;;;;;;;56.30;27.07;;;;;;;3.66;71.90;102859.78;5012218;28;20034;-90
2022/03/24 07:08:22;;;;;;;52.67;27.13;;;;;;;3.75;71.49;102860.13;4992850;28;20532;-89
2022/03/24 07:10:48;;;;;;;57.77;27.93;;;;;;;3.87;70.96;102866.53;4991964;28;20030;-89
2022/03/24 07:13:13;;;;;;;59.33;27.38;;;;;;;3.97;71.22;102863.44;4992804;28;20029;-89
2022/03/24 07:15:38;;;;;;;56.05;27.33;;;;;;;4.08;71.52;102869.84;4992330;28;20021;-90
2022/03/24 07:18:04;;;;;;;57.57;28.90;;;;;;;4.17;71.75;102858.97;4991731;28;20022;-89
2022/03/24 07:20:29;;;;;;;54.80;29.10;;;;;;;4.28;72.01;102867.03;5010150;28;20104;-89
2022/03/24 07:23:00;;;;;;;169.03;64.13;;;;;;;4.37;69.95;102867.34;5009846;28;20036;-89
2022/03/24 07:25:26;;;;;;;199.85;76.82;;;;;;;4.48;69.34;102875.44;5010376;28;20032;-90
2022/03/24 07:27:51;;;;;;;210.13;85.45;;;;;;;4.57;68.68;102869.72;5012092;28;20030;-90
2022/03/24 07:30:16;;;;;;;196.48;80.40;;;;;;;4.68;69.56;102860.59;5010067;28;20366;-90
2022/03/24 07:32:43;;;;;;;165.55;65.93;;;;;;;4.80;68.23;102866.97;5009898;28;20045;-88
2022/03/24 07:35:08;;;;;;;166.50;63.33;;;;;;;4.92;69.09;102872.53;4992577;28;20112;-89
2022/03/24 07:37:34;;;;;;;127.60;54.17;;;;;;;5.03;67.58;102866.81;5010679;28;20108;-89
2022/03/24 07:40:00;;;;;;;127.45;54.15;;;;;;;5.14;68.25;102862.81;5009598;28;20030;-89
2022/03/24 07:42:25;;;;;;;113.22;51.17;;;;;;;5.26;68.20;102868.38;5003320;28;20049;-94
2022/03/24 07:44:50;;;;;;;109.05;50.20;;;;;;;5.36;68.10;102872.09;5006105;28;21331;-91
2022/03/24 07:47:16;;;;;;;94.20;44.78;;;;;;;5.46;68.06;102870.66;4987614;28;20037;-89
2022/03/24 07:49:42;;;;;;;93.22;42.80;;;;;;;5.56;67.15;102867.50;5004938;28;20026;-90
2022/03/24 07:52:14;;;;;;;79.65;40.08;;;;;;;5.68;67.31;102866.06;5004913;28;20030;-88
2022/03/24 07:54:40;;;;;;;62.20;34.17;;;;;;;5.76;66.62;102864.59;5014430;28;20021;-89
2022/03/24 07:57:05;;;;;;;67.80;34.72;;;;;;;5.86;65.76;102874.31;5017210;28;20025;-88
2022/03/24 07:59:31;;;;;;;66.15;34.55;;;;;;;5.96;65.59;102874.59;4998513;28;20021;-89
2022/03/24 08:01:56;;;;;;;69.40;34.90;;;;;;;6.05;65.44;102869.66;4996051;28;20041;-88
2022/03/24 08:04:21;;;;;;;61.65;33.15;;;;;;;6.14;65.85;102872.50;5002312;28;20018;-87
2022/03/24 08:06:47;;;;;;;58.15;31.85;;;;;;;6.24;66.53;102876.16;5014183;28;20124;-88
2022/03/24 08:09:12;;;;;;;59.72;33.05;;;;;;;6.35;66.07;102879.03;5013483;28;20075;-87
2022/03/24 08:11:37;;;;;;;53.50;31.30;;;;;;;6.46;66.38;102874.13;5013291;28;20080;-88
2022/03/24 08:14:02;;;;;;;54.63;30.40;;;;;;;6.55;63.43;102881.22;4995136;28;20034;-88
2022/03/24 08:16:28;;;;;;;55.17;29.08;;;;;;;6.63;62.84;102883.16;5015971;28;20030;-88
2022/03/24 08:18:55;;;;;;;54.10;28.52;;;;;;;6.73;62.58;102879.09;4997362;28;20024;-89
2022/03/24 08:21:21;;;;;;;49.63;27.63;;;;;;;6.82;62.02;102886.19;5018727;28;20113;-87
2022/03/24 08:23:46;;;;;;;52.55;29.40;;;;;;;6.92;63.96;102884.69;4996563;28;20117;-88
2022/03/24 08:26:12;;;;;;;50.20;27.40;;;;;;;7.03;61.88;102890.09;5022731;28;20113;-87
2022/03/24 08:28:37;;;;;;;52.38;27.25;;;;;;;7.11;62.52;102886.84;5015537;28;20034;-87
2022/03/24 08:31:04;;;;;;;53.28;28.33;;;;;;;7.20;63.60;102887.88;5013810;28;20409;-87
2022/03/24 08:33:29;;;;;;;51.08;27.40;;;;;;;7.29;60.49;102895.84;5013339;28;20022;-85
2022/03/24 08:35:55;;;;;;;50.03;27.55;;;;;;;7.38;60.42;102889.97;5012285;28;20492;-88
2022/03/24 08:38:20;;;;;;;47.00;25.83;;;;;;;7.48;59.29;102891.91;5002405;28;20516;-88
2022/03/24 08:40:46;;;;;;;42.65;25.05;;;;;;;7.57;59.26;102896.41;5021939;28;20116;-88
2022/03/24 08:43:12;;;;;;;44.72;26.52;;;;;;;7.66;60.03;102890.53;5029402;28;20018;-89
2022/03/24 08:45:38;;;;;;;48.25;25.05;;;;;;;7.75;59.25;102889.00;4990477;28;20030;-88
2022/03/24 08:48:05;;;;;;;44.47;24.85;;;;;;;7.86;57.32;102891.78;5011696;28;20026;-88
2022/03/24 08:50:31;;;;;;;41.45;23.58;;;;;;;7.97;56.10;102889.41;4996291;28;20014;-89
2022/03/24 08:52:56;;;;;;;44.78;25.05;;;;;;;8.08;57.10;102889.59;5020684;28;20142;-91
2022/03/24 08:55:22;;;;;;;48.65;25.23;;;;;;;8.20;57.08;102891.50;4995115;28;20047;-89
2022/03/24 08:57:48;;;;;;;44.20;24.42;;;;;;;8.31;57.18;102891.69;4994581;28;20026;-89
2022/03/24 09:00:17;;;;;;;45.08;24.85;;;;;;;8.44;57.64;102890.19;5013055;28;20026;-89
2022/03/24 09:02:44;;;;;;;44.08;25.33;;;;;;;8.54;57.42;102889.50;4995575;28;20041;-88
2022/03/24 09:05:09;;;;;;;46.25;26.00;;;;;;;8.63;57.34;102888.78;5016059;28;20084;-88
2022/03/24 09:07:36;;;;;;;45.03;25.60;;;;;;;8.73;56.50;102889.78;5012941;28;20033;-89
2022/03/24 09:10:05;;;;;;;42.40;24.30;;;;;;;8.82;54.81;102895.13;5014966;28;20021;-88
2022/03/24 09:12:32;;;;;;;41.08;24.27;;;;;;;8.94;55.21;102892.72;5003089;28;20072;-89
2022/03/24 09:14:57;;;;;;;41.53;22.83;;;;;;;9.09;53.26;102888.56;4994274;28;20038;-89
2022/03/24 09:17:23;;;;;;;40.15;21.67;;;;;;;9.20;52.88;102886.13;5005260;28;20036;-87
2022/03/24 09:19:48;;;;;;;40.25;22.60;;;;;;;9.34;53.28;102897.56;5016468;28;20017;-88
2022/03/24 09:22:14;;;;;;;42.30;22.77;;;;;;;9.45;52.72;102891.66;5006750;28;20053;-89
2022/03/24 09:24:39;;;;;;;44.85;22.55;;;;;;;9.58;52.84;102888.34;5022853;28;20025;-87
2022/03/24 09:27:05;;;;;;;41.15;23.10;;;;;;;9.67;52.99;102887.56;5017435;28;20431;-87
2022/03/24 09:29:31;;;;;;;38.22;22.65;;;;;;;9.81;51.94;102888.56;5016629;28;20014;-87
2022/03/24 09:31:57;;;;;;;38.90;22.35;;;;;;;9.95;51.00;102891.34;5012919;28;20092;-88
2022/03/24 09:34:22;;;;;;;38.38;22.38;;;;;;;10.03;51.81;102891.41;5012768;28;20489;-88
2022/03/24 09:36:47;;;;;;;36.78;22.00;;;;;;;10.17;49.76;102896.72;4995695;28;20022;-88
2022/03/24 09:39:14;;;;;;;41.00;23.27;;;;;;;10.31;50.20;102891.63;4995356;28;20026;-88
2022/03/24 09:41:40;;;;;;;38.40;22.85;;;;;;;10.51;51.23;102896.16;4999131;28;20026;-88
2022/03/24 09:44:07;;;;;;;35.95;21.38;;;;;;;10.63;48.58;102893.66;5013012;28;20026;-87
2022/03/24 09:46:33;;;;;;;35.90;21.42;;;;;;;10.75;45.75;102898.97;5016671;28;20034;-87
2022/03/24 09:48:59;;;;;;;34.67;21.52;;;;;;;10.88;46.63;102899.03;5007817;28;20108;-88
2022/03/24 09:51:26;;;;;;;41.38;21.50;;;;;;;10.99;47.26;102894.75;5006869;28;20025;-90
2022/03/24 09:53:52;;;;;;;38.22;20.83;;;;;;;11.08;46.45;102891.31;4989423;28;20030;-89
2022/03/24 09:56:18;;;;;;;34.55;21.00;;;;;;;11.15;44.40;102895.72;4988951;28;20018;-90
2022/03/24 09:58:44;;;;;;;37.92;20.70;;;;;;;11.23;46.25;102887.94;4989680;28;20477;-88
2022/03/24 10:01:13;;;;;;;38.95;21.23;;;;;;;11.32;46.33;102890.56;5005581;28;20481;-89
2022/03/24 10:03:39;;;;;;;37.78;20.80;;;;;;;11.39;44.78;102888.84;5005993;28;20052;-89
2022/03/24 10:06:10;;;;;;;34.92;21.95;;;;;;;11.45;45.79;102890.59;5006776;28;20049;-88
2022/03/24 10:08:36;;;;;;;34.92;21.40;;;;;;;11.53;44.32;102894.13;5006580;28;20473;-89
2022/03/24 10:11:07;;;;;;;36.80;21.08;;;;;;;11.60;45.10;102887.19;5003594;28;20037;-88
2022/03/24 10:13:54;;;;;;;39.33;21.60;;;;;;;11.69;46.05;102890.69;4987912;28;20485;-90
2022/03/24 10:16:44;;;;;;;36.78;20.67;;;;;;;11.77;45.19;102887.25;4989214;28;20069;-90
2022/03/24 10:19:12;;;;;;;29.58;17.00;;;;;;;11.88;38.17;102880.31;4986516;28;20038;-88
2022/03/24 10:21:40;;;;;;;26.90;15.98;;;;;;;11.97;39.22;102872.47;5003114;28;20061;-89
2022/03/24 10:24:13;;;;;;;23.65;15.05;;;;;;;12.06;37.77;102879.47;4987367;28;20448;-89
2022/03/24 10:26:40;;;;;;;26.17;15.95;;;;;;;12.15;38.72;102878.63;4989010;28;20083;-90
2022/03/24 10:29:06;;;;;;;25.23;15.25;;;;;;;12.24;37.74;102875.13;4987872;28;20041;-90
2022/03/24 10:31:35;;;;;;;25.38;15.43;;;;;;;12.33;40.19;102869.94;5000201;28;20082;-87
2022/03/24 10:34:02;;;;;;;26.73;15.75;;;;;;;12.44;36.45;102872.53;5031380;28;20026;-87
2022/03/24 10:36:28;;;;;;;31.02;16.35;;;;;;;12.53;36.89;102880.34;5015185;28;20022;-87
2022/03/24 10:39:04;;;;;;;25.45;16.55;;;;;;;12.62;35.64;102876.00;5010354;28;20052;-87
2022/03/24 10:41:31;;;;;;;27.33;16.58;;;;;;;12.65;36.07;102875.97;5008238;28;20470;-88
2022/03/24 10:44:08;;;;;;;25.55;15.68;;;;;;;12.68;35.02;102874.25;5008234;28;20057;-89
2022/03/24 10:46:35;;;;;;;28.45;15.75;;;;;;;12.77;35.06;102875.09;5007868;28;20030;-88
2022/03/24 10:49:16;;;;;;;25.10;15.35;;;;;;;12.83;37.23;102864.63;5005784;28;20116;-88
2022/03/24 10:51:47;;;;;;;28.27;15.93;;;;;;;12.89;35.14;102865.47;5006124;28;20068;-87
2022/03/24 10:54:19;;;;;;;23.08;15.63;;;;;;;12.97;36.67;102872.44;4988512;28;20531;-87
2022/03/24 10:56:53;;;;;;;24.92;15.25;;;;;;;13.01;35.79;102871.53;5006072;28;20037;-87
2022/03/24 10:59:19;;;;;;;27.58;16.42;;;;;;;13.09;35.54;102872.41;5004870;28;20034;-89
2022/03/24 11:01:46;;;;;;;24.02;15.65;;;;;;;13.17;35.82;102868.00;5005405;28;20418;-89
2022/03/24 11:04:13;;;;;;;25.25;15.32;;;;;;;13.18;35.19;102869.72;5004514;28;20042;-89
2022/03/24 11:06:47;;;;;;;26.63;16.88;;;;;;;13.24;36.28;102863.59;4987812;28;20036;-89
2022/03/24 11:09:21;;;;;;;24.88;15.27;;;;;;;13.32;37.71;102861.84;5004546;28;20120;-89
2022/03/24 11:11:47;;;;;;;24.17;15.10;;;;;;;13.38;32.55;102867.91;5005425;28;20053;-88
2022/03/24 11:14:13;;;;;;;25.25;15.57;;;;;;;13.42;33.75;102857.47;5005182;28;20220;-87
2022/03/24 11:16:40;;;;;;;24.30;14.98;;;;;;;13.49;32.09;102863.53;5005933;28;20033;-89